createdAt,value
2019-05-26T00:02:05.075Z,34.8
2019-05-26T00:05:11.419Z,34.8
2019-05-26T00:08:17.687Z,34.9
2019-05-26T00:11:23.836Z,34.9
2019-05-26T00:14:30.117Z,34.8
2019-05-26T00:17:36.261Z,34.9
2019-05-26T00:20:42.526Z,34.8
2019-05-26T00:23:48.791Z,34.9
2019-05-26T00:26:55.056Z,35
2019-05-26T00:30:01.183Z,34.9
2019-05-26T00:33:07.350Z,35
2019-05-26T00:36:13.547Z,35
2019-05-26T00:39:19.822Z,35
2019-05-26T00:42:25.943Z,34.9
2019-05-26T00:45:32.147Z,34.9
2019-05-26T00:48:41.365Z,35
2019-05-26T00:51:47.562Z,34.9
2019-05-26T00:54:53.813Z,35
2019-05-26T00:58:00.077Z,34.9
2019-05-26T01:01:06.350Z,35
2019-05-26T01:04:12.472Z,34.9
2019-05-26T01:07:18.797Z,35
2019-05-26T01:10:25.057Z,35
2019-05-26T01:13:31.314Z,35
2019-05-26T01:16:37.584Z,35
2019-05-26T01:19:43.825Z,34.9
2019-05-26T01:22:50.015Z,35
2019-05-26T01:25:59.448Z,35.1
2019-05-26T01:29:05.818Z,35.2
2019-05-26T01:32:12.130Z,35.2
2019-05-26T01:35:18.369Z,35.2
2019-05-26T01:38:27.380Z,35.3
2019-05-26T01:41:33.543Z,35.4
2019-05-26T01:44:39.814Z,35.5
2019-05-26T01:47:46.077Z,35.5
2019-05-26T01:50:52.230Z,35.5
2019-05-26T01:53:58.408Z,35.6
2019-05-26T01:57:04.531Z,35.8
2019-05-26T02:00:10.737Z,35.9
2019-05-26T02:03:16.898Z,35.9
2019-05-26T02:06:23.119Z,35.9
2019-05-26T02:09:29.446Z,36
2019-05-26T02:12:35.601Z,36
2019-05-26T02:15:41.862Z,36.1
2019-05-26T02:18:48.047Z,36.1
2019-05-26T02:21:54.296Z,36.1
2019-05-26T02:25:00.417Z,36.1
2019-05-26T02:28:09.186Z,36.1
2019-05-26T02:31:15.453Z,36.1
2019-05-26T02:34:21.583Z,36.1
2019-05-26T02:37:27.875Z,36.1
2019-05-26T02:40:34.036Z,36.2
2019-05-26T02:43:40.411Z,36.2
2019-05-26T02:46:46.680Z,36.2
2019-05-26T02:49:55.739Z,36.3
2019-05-26T02:53:01.968Z,36.2
2019-05-26T02:56:08.133Z,36.3
2019-05-26T02:59:14.273Z,36.3
2019-05-26T03:02:20.562Z,36.3
2019-05-26T03:05:26.965Z,36.3
2019-05-26T03:08:33.310Z,36.3
2019-05-26T03:11:39.676Z,36.3
2019-05-26T03:14:45.801Z,36.2
2019-05-26T03:17:52.002Z,36.1
2019-05-26T03:20:58.159Z,36.1
2019-05-26T03:24:04.428Z,36.1
2019-05-26T03:27:10.805Z,35.9
2019-05-26T03:30:17.085Z,36
2019-05-26T03:33:23.336Z,35.9
2019-05-26T03:36:29.497Z,35.9
2019-05-26T03:39:46.580Z,35.8
2019-05-26T03:42:52.983Z,35.8
2019-05-26T03:45:59.158Z,35.6
2019-05-26T03:49:05.393Z,35.5
2019-05-26T03:52:11.613Z,35.4
2019-05-26T03:55:17.788Z,35.2
2019-05-26T03:58:24.110Z,35
2019-05-26T04:01:30.581Z,34.9
2019-05-26T04:04:36.707Z,34.7
2019-05-26T04:07:42.963Z,34.6
2019-05-26T04:10:49.331Z,34.5
2019-05-26T04:13:55.548Z,34.4
2019-05-26T04:17:01.746Z,34.4
2019-05-26T04:20:07.975Z,34.2
2019-05-26T04:23:14.346Z,34.2
2019-05-26T04:26:20.620Z,34
2019-05-26T04:29:26.819Z,33.9
2019-05-26T04:32:33.145Z,33.8
2019-05-26T04:35:39.422Z,33.8
2019-05-26T04:38:45.674Z,33.9
2019-05-26T04:41:51.836Z,33.9
2019-05-26T04:44:58.108Z,34
2019-05-26T04:48:04.270Z,33.8
2019-05-26T04:51:10.541Z,33.8
2019-05-26T04:54:16.725Z,33.9
2019-05-26T04:57:22.985Z,33.8
2019-05-26T05:00:29.142Z,34
2019-05-26T05:03:35.285Z,33.9
2019-05-26T05:06:41.794Z,33.9
2019-05-26T05:09:47.997Z,34
2019-05-26T05:12:57.063Z,34
2019-05-26T05:16:03.513Z,34.1
2019-05-26T05:19:09.719Z,34.1
2019-05-26T05:22:15.836Z,34
2019-05-26T05:25:22.247Z,33.9
2019-05-26T05:28:28.463Z,34
2019-05-26T05:31:34.559Z,33.8
2019-05-26T05:34:40.829Z,33.8
2019-05-26T05:37:47.096Z,33.7
2019-05-26T05:41:00.578Z,33.8
2019-05-26T05:44:06.774Z,33.7
2019-05-26T05:47:13.060Z,33.7
2019-05-26T05:50:19.325Z,33.7
2019-05-26T05:53:25.596Z,33.7
2019-05-26T05:56:31.721Z,33.7
2019-05-26T05:59:37.923Z,33.7
2019-05-26T06:02:44.185Z,33.8
2019-05-26T06:05:50.414Z,33.8
2019-05-26T06:08:56.618Z,33.8
2019-05-26T06:12:02.756Z,33.8
2019-05-26T06:15:09.049Z,33.9
2019-05-26T06:18:16.519Z,33.9
2019-05-26T06:21:22.706Z,34
2019-05-26T06:24:28.836Z,34
2019-05-26T06:27:35.137Z,34.3
2019-05-26T06:30:41.264Z,34.3
2019-05-26T06:33:47.568Z,34.3
2019-05-26T06:36:53.736Z,34.3
2019-05-26T06:39:59.999Z,34.4
2019-05-26T06:43:06.127Z,34.4
2019-05-26T06:46:12.340Z,34.6
2019-05-26T06:49:18.596Z,34.6
2019-05-26T06:52:24.861Z,34.7
2019-05-26T06:55:30.988Z,34.7
2019-05-26T06:58:37.228Z,34.8
2019-05-26T07:01:43.454Z,34.8
2019-05-26T07:04:49.619Z,34.9
2019-05-26T07:07:55.885Z,34.9
2019-05-26T07:11:02.153Z,35
2019-05-26T07:14:08.281Z,35.1
2019-05-26T07:17:14.582Z,35
2019-05-26T07:20:25.048Z,35.1
2019-05-26T07:23:31.187Z,35.3
2019-05-26T07:26:37.478Z,35.1
2019-05-26T07:29:43.751Z,35.1
2019-05-26T07:32:49.884Z,35.2
2019-05-26T07:35:56.278Z,35.3
2019-05-26T07:39:02.408Z,35.2
2019-05-26T07:42:11.425Z,35.1
2019-05-26T07:45:17.741Z,35.3
2019-05-26T07:48:24.075Z,35.2
2019-05-26T07:51:30.273Z,35.1
2019-05-26T07:54:36.545Z,35.1
2019-05-26T07:57:42.704Z,35.3
2019-05-26T08:00:48.976Z,35.1
2019-05-26T08:03:55.342Z,35.1
2019-05-26T08:07:01.549Z,35
2019-05-26T08:10:07.880Z,35
2019-05-26T08:13:14.147Z,35.1
2019-05-26T08:16:20.409Z,35
2019-05-26T08:19:26.539Z,35
2019-05-26T08:22:32.739Z,35
2019-05-26T08:25:39.009Z,34.9
2019-05-26T08:28:45.301Z,34.9
2019-05-26T08:31:51.541Z,35
2019-05-26T08:34:57.713Z,35
2019-05-26T08:38:06.637Z,34.9
2019-05-26T08:41:12.793Z,34.9
2019-05-26T08:44:18.983Z,34.9
2019-05-26T08:47:25.223Z,35
2019-05-26T08:50:34.869Z,34.9
2019-05-26T08:53:43.594Z,34.9
2019-05-26T08:56:49.734Z,34.9
2019-05-26T08:59:56.028Z,35.1
2019-05-26T09:03:02.157Z,35
2019-05-26T09:06:08.682Z,34.9
2019-05-26T09:09:14.926Z,35.1
2019-05-26T09:12:21.073Z,35.2
2019-05-26T09:15:27.382Z,35.1
2019-05-26T09:18:33.626Z,35.1
2019-05-26T09:21:39.789Z,35.2
2019-05-26T09:24:45.917Z,35.2
2019-05-26T09:27:52.117Z,35.2
2019-05-26T09:30:58.281Z,35.2
2019-05-26T09:34:04.410Z,35.1
2019-05-26T09:37:10.712Z,34.8
2019-05-26T09:40:16.850Z,35
2019-05-26T09:43:23.141Z,35.1
2019-05-26T09:46:29.307Z,35.1
2019-05-26T09:49:35.436Z,35
2019-05-26T09:52:41.643Z,34.9
2019-05-26T09:55:47.775Z,35
2019-05-26T09:58:53.966Z,34.8
2019-05-26T10:02:00.435Z,34.9
2019-05-26T10:05:06.730Z,34.9
2019-05-26T10:08:12.860Z,34.8
2019-05-26T10:11:19.040Z,34.8
2019-05-26T10:14:25.406Z,34.8
2019-05-26T10:17:31.568Z,34.8
2019-05-26T10:20:37.821Z,34.7
2019-05-26T10:23:44.098Z,34.7
2019-05-26T10:26:50.263Z,34.6
2019-05-26T10:29:56.531Z,34.6
2019-05-26T10:33:02.718Z,34.5
2019-05-26T10:36:08.959Z,34.4
2019-05-26T10:39:15.226Z,34.5
2019-05-26T10:42:21.368Z,34.3
2019-05-26T10:45:27.562Z,34.3
2019-05-26T10:48:38.026Z,34.4
2019-05-26T10:51:44.182Z,34.4
2019-05-26T10:54:50.451Z,34.4
2019-05-26T10:57:56.604Z,34.5
2019-05-26T11:01:03.094Z,34.4
2019-05-26T11:04:09.358Z,34.3
2019-05-26T11:07:15.632Z,34.3
2019-05-26T11:10:21.768Z,34.3
2019-05-26T11:13:28.056Z,34.3
2019-05-26T11:16:34.197Z,34.2
2019-05-26T11:19:40.382Z,34.3
2019-05-26T11:22:46.541Z,34.2
2019-05-26T11:25:52.670Z,34.3
2019-05-26T11:28:58.873Z,34.2
2019-05-26T11:32:05.040Z,34.3
2019-05-26T11:35:11.306Z,34.1
2019-05-26T11:38:17.471Z,34.2
2019-05-26T11:41:23.736Z,34.2
2019-05-26T11:44:29.898Z,34.1
2019-05-26T11:47:36.060Z,34.1
2019-05-26T11:50:42.192Z,34.2
2019-05-26T11:53:48.392Z,34.1
2019-05-26T11:56:54.561Z,34.1
2019-05-26T12:00:00.879Z,34.1
2019-05-26T12:03:08.116Z,34.1
2019-05-26T12:06:14.339Z,34.1
2019-05-26T12:09:20.545Z,34.1
2019-05-26T12:12:26.673Z,34.2
2019-05-26T12:15:32.977Z,34.2
2019-05-26T12:18:39.242Z,34.1
2019-05-26T12:21:45.384Z,34.1
2019-05-26T12:24:51.587Z,34.2
2019-05-26T12:27:57.730Z,34
2019-05-26T12:31:03.895Z,33.9
2019-05-26T12:34:10.087Z,34.1
2019-05-26T12:37:16.335Z,34.1
2019-05-26T12:40:22.453Z,34
2019-05-26T12:43:28.656Z,34
2019-05-26T12:46:34.925Z,33.9
2019-05-26T12:49:41.086Z,34
2019-05-26T12:52:47.253Z,33.8
2019-05-26T12:55:53.394Z,33.8
2019-05-26T12:58:59.580Z,33.9
2019-05-26T13:02:05.849Z,33.8
2019-05-26T13:05:12.147Z,34
2019-05-26T13:08:18.581Z,33.8
2019-05-26T13:11:24.848Z,33.8
2019-05-26T13:14:31.021Z,34.1
2019-05-26T13:17:37.281Z,33.9
2019-05-26T13:20:43.423Z,33.8
2019-05-26T13:23:49.732Z,33.9
2019-05-26T13:26:55.979Z,33.9
2019-05-26T13:30:02.246Z,34
2019-05-26T13:33:08.382Z,33.8
2019-05-26T13:36:14.578Z,33.8
2019-05-26T13:39:20.741Z,34.2
2019-05-26T13:42:27.011Z,34.2
2019-05-26T13:45:34.704Z,34.2
2019-05-26T13:48:40.868Z,34.2
2019-05-26T13:51:51.007Z,34.5
2019-05-26T13:54:57.193Z,33.8
2019-05-26T13:58:03.456Z,34
2019-05-26T14:01:09.600Z,34
2019-05-26T14:04:15.897Z,33.9
2019-05-26T14:07:22.153Z,34
2019-05-26T14:10:28.282Z,33.8
2019-05-26T14:13:34.543Z,34.1
2019-05-26T14:16:40.763Z,33.8
2019-05-26T14:19:46.889Z,34.2
2019-05-26T14:22:53.078Z,33.8
2019-05-26T14:25:59.245Z,34
2019-05-26T14:29:05.437Z,33.9
2019-05-26T14:32:11.677Z,34
2019-05-26T14:35:17.820Z,33.7
2019-05-26T14:38:43.769Z,33.7
2019-05-26T14:41:49.886Z,33.7
2019-05-26T14:44:58.959Z,33.7
2019-05-26T14:48:09.430Z,34.1
2019-05-26T14:51:15.700Z,33.9
2019-05-26T14:54:21.864Z,33.8
2019-05-26T14:57:31.601Z,34
2019-05-26T15:00:37.830Z,33.8
2019-05-26T15:03:44.033Z,33.9
2019-05-26T15:06:50.256Z,33.8
2019-05-26T15:09:56.404Z,33.8
2019-05-26T15:13:02.593Z,33.9
2019-05-26T15:16:11.044Z,33.9
2019-05-26T15:19:17.213Z,34.1
2019-05-26T15:22:23.461Z,33.9
2019-05-26T15:25:29.638Z,33.9
2019-05-26T15:28:35.911Z,33.9
2019-05-26T15:31:42.109Z,34
2019-05-26T15:34:48.339Z,34.3
2019-05-26T15:37:54.613Z,34.3
2019-05-26T15:41:00.767Z,34.5
2019-05-26T15:44:06.895Z,34.7
2019-05-26T15:47:16.083Z,34.6
2019-05-26T15:50:22.212Z,34.9
2019-05-26T15:53:28.395Z,34.8
2019-05-26T15:56:34.561Z,35.1
2019-05-26T15:59:40.732Z,35.3
2019-05-26T16:02:46.890Z,35.2
2019-05-26T16:05:53.361Z,35.3
2019-05-26T16:08:59.628Z,35.6
2019-05-26T16:12:05.896Z,35.5
2019-05-26T16:15:12.022Z,35.4
2019-05-26T16:18:18.219Z,35.6
2019-05-26T16:21:28.890Z,35.4
2019-05-26T16:24:35.020Z,35.7
2019-05-26T16:27:41.226Z,35.6
2019-05-26T16:30:47.354Z,35.8
2019-05-26T16:33:53.656Z,35.6
2019-05-26T16:36:59.779Z,35.5
2019-05-26T16:40:05.983Z,35.8
2019-05-26T16:43:12.249Z,35.6
2019-05-26T16:46:18.389Z,36.1
2019-05-26T16:49:24.593Z,35.6
2019-05-26T16:52:30.701Z,35.9
2019-05-26T16:55:36.912Z,36.2
2019-05-26T16:58:43.170Z,35.6
2019-05-26T17:01:49.435Z,36
2019-05-26T17:04:55.911Z,35.9
2019-05-26T17:08:02.072Z,36.2
2019-05-26T17:11:08.227Z,36.2
2019-05-26T17:14:14.354Z,36.3
2019-05-26T17:17:20.568Z,36.4
2019-05-26T17:20:26.689Z,36.5
2019-05-26T17:23:32.887Z,35.9
2019-05-26T17:26:39.018Z,36
2019-05-26T17:29:45.218Z,36.6
2019-05-26T17:32:51.487Z,36.2
2019-05-26T17:35:57.656Z,36.8
2019-05-26T17:39:03.811Z,36.3
2019-05-26T17:42:10.006Z,36.2
2019-05-26T17:45:16.243Z,36.3
2019-05-26T17:48:22.440Z,36.6
2019-05-26T17:51:28.566Z,36.7
2019-05-26T17:54:34.724Z,36.5
2019-05-26T17:57:40.855Z,36.4
2019-05-26T18:00:47.065Z,36.5
2019-05-26T18:03:53.229Z,37.1
2019-05-26T18:06:59.356Z,36.9
2019-05-26T18:10:05.556Z,36.8
2019-05-26T18:13:11.720Z,36.7
2019-05-26T18:16:18.090Z,36.9
2019-05-26T18:19:24.422Z,36.8
2019-05-26T18:22:34.867Z,36.8
2019-05-26T18:25:41.088Z,36.9
2019-05-26T18:28:47.254Z,37.3
2019-05-26T18:31:53.532Z,37.1
2019-05-26T18:35:00.414Z,37.3
2019-05-26T18:38:06.642Z,37.2
2019-05-26T18:41:12.935Z,37.1
2019-05-26T18:44:19.230Z,37.6
2019-05-26T18:47:25.345Z,37.4
2019-05-26T18:50:31.489Z,37.4
2019-05-26T18:53:37.696Z,37.3
2019-05-26T18:56:43.852Z,37.6
2019-05-26T18:59:50.024Z,37.7
2019-05-26T19:02:56.291Z,37.5
2019-05-26T19:06:02.678Z,37.8
2019-05-26T19:09:08.781Z,37.6
2019-05-26T19:12:14.983Z,37.6
2019-05-26T19:15:21.211Z,37.7
2019-05-26T19:18:27.415Z,37.9
2019-05-26T19:21:33.555Z,38.1
2019-05-26T19:24:39.745Z,37.9
2019-05-26T19:27:45.874Z,38.4
2019-05-26T19:30:52.072Z,37.6
2019-05-26T19:33:58.339Z,37.9
2019-05-26T19:37:04.607Z,37.6
2019-05-26T19:40:10.772Z,38.1
2019-05-26T19:43:16.897Z,37.9
2019-05-26T19:46:23.091Z,37.6
2019-05-26T19:49:29.366Z,37.7
2019-05-26T19:52:35.492Z,37.6
2019-05-26T19:55:41.697Z,37.7
2019-05-26T19:58:47.963Z,37.7
2019-05-26T20:01:54.230Z,37.6
2019-05-26T20:05:24.775Z,37.5
2019-05-26T20:08:31.031Z,37.5
2019-05-26T20:11:37.239Z,37.6
2019-05-26T20:14:43.470Z,37.6
2019-05-26T20:17:52.186Z,37.6
2019-05-26T20:20:58.324Z,37.5
2019-05-26T20:24:04.616Z,37.7
2019-05-26T20:27:10.760Z,37.6
2019-05-26T20:30:17.045Z,37.6
2019-05-26T20:33:31.405Z,37.9
2019-05-26T20:36:40.520Z,37.6
2019-05-26T20:39:46.700Z,37.6
2019-05-26T20:42:53.075Z,37.7
2019-05-26T20:45:59.443Z,37.7
2019-05-26T20:49:05.704Z,37.9
2019-05-26T20:52:11.933Z,37.9
2019-05-26T20:55:18.591Z,37.7
2019-05-26T20:58:24.827Z,37.8
2019-05-26T21:01:31.039Z,37.7
2019-05-26T21:04:37.652Z,37.7
2019-05-26T21:07:44.011Z,37.7
2019-05-26T21:10:50.285Z,37.7
2019-05-26T21:13:56.434Z,37.8
2019-05-26T21:17:02.613Z,37.9
2019-05-26T21:20:08.749Z,38
2019-05-26T21:23:15.018Z,38
2019-05-26T21:26:21.218Z,38
2019-05-26T21:29:30.425Z,38
2019-05-26T21:32:36.712Z,38
2019-05-26T21:35:42.924Z,38
2019-05-26T21:38:49.140Z,38.2
2019-05-26T21:41:55.270Z,38.1
2019-05-26T21:45:03.937Z,38.3
2019-05-26T21:48:10.215Z,38.2
2019-05-26T21:51:16.471Z,37.9
2019-05-26T21:54:22.746Z,38
2019-05-26T21:57:29.106Z,38.3
2019-05-26T22:00:35.253Z,38
2019-05-26T22:03:41.534Z,38.1
2019-05-26T22:06:47.910Z,37.9
2019-05-26T22:09:54.028Z,38
2019-05-26T22:13:00.232Z,37.9
2019-05-26T22:16:06.392Z,38
2019-05-26T22:19:12.583Z,38
2019-05-26T22:22:18.820Z,38
2019-05-26T22:25:25.090Z,37.9
2019-05-26T22:28:31.223Z,38
2019-05-26T22:31:37.418Z,37.8
2019-05-26T22:34:43.541Z,38.2
2019-05-26T22:37:49.813Z,38
2019-05-26T22:40:56.012Z,37.9
2019-05-26T22:44:02.149Z,37.7
2019-05-26T22:47:08.345Z,37.5
2019-05-26T22:50:14.512Z,37.6
2019-05-26T22:53:20.707Z,37.6
2019-05-26T22:56:26.935Z,37.6
2019-05-26T22:59:33.107Z,37.7
2019-05-26T23:02:39.366Z,37.7
2019-05-26T23:05:46.259Z,37.8
2019-05-26T23:08:52.384Z,37.6
2019-05-26T23:11:58.583Z,37.7
2019-05-26T23:15:04.735Z,37.8
2019-05-26T23:18:10.867Z,37.7
2019-05-26T23:21:17.065Z,37.6
2019-05-26T23:24:23.344Z,37.8
2019-05-26T23:27:29.607Z,37.5
2019-05-26T23:30:35.923Z,37.7
2019-05-26T23:33:42.131Z,37.5
2019-05-26T23:36:48.398Z,37.4
2019-05-26T23:39:54.524Z,37.6
2019-05-26T23:43:00.724Z,37.8
2019-05-26T23:46:06.992Z,37.8
2019-05-26T23:49:13.224Z,37.9
2019-05-26T23:52:20.247Z,37.8
2019-05-26T23:55:26.513Z,37.8
2019-05-26T23:58:32.706Z,37.9
